Shrewsbury, Pennsylvania
Current Conditions -  °F | °C
As of 5:49 PM on Monday 22 Dec 2014 (Local Time) from KTHV Reporting Station
Light Rain Light Rain  
Wind Chill: 34°   Ceiling: 3300
Heat Index: 34°   Visibility: 2.5mi
Dew Point: 30°   Wind: 3mph
Humidity: 87%   Direction: 280°W
Pressure: 30.17"   Gusts: NA
Location:  39.77°N, 76.68°W
Report Text: KTHV 222249Z AUTO 28003KT 2 1/2SM -RA BR BKN033 OVC040 01/M01 A3017 RMK AO2 RAB00 P0002
Loading
Personal Weather Stations






























Interactive Weather Map New forecast layout! Learn more

10-Day Weather Forecast

Advertisements
Track Severe Weather on mobile